Latest Weather Observations for Richmond

IDQ60801

Issued at 7:05 am EST Sunday 26 October 2014 (issued every 30 minutes, with the page automatically refreshed every 10 minutes)

About weather observations | Map of weather stations | Latest weather observations for QLD | Other Formats
Station Details ID: 030161 Name: RICHMOND AIRPORT Lat: -20.70 Lon: 143.12 Height: 206.3 m
Data from the previous 72 hours. | See also: Recent months at Richmond
Date/Time
EST
Temp
°C
App
Temp
°C
Dew
Point
Rel
Hum
%
Delta-T
°C
Wind Press
QNH
hPa
Press
MSL
hPa
Rain
since 9 am
mm
Dir
 
Spd
km/h
Gust
km/h
Spd
kts
Gust
kts
26/07:00am 22.8 18.8 2.8 27 9.6 NNE 13 19 7 10 1016.0 1014.7 0.0
26/06:30am 19.7 15.2 2.1 31 8.2 NNE 15 19 8 10 1015.7 1014.4 0.0
26/06:00am 18.0 14.2 1.5 33 7.5 NE 11 15 6 8 1015.3 1014.0 0.0
26/05:30am 18.4 15.0 1.9 33 7.6 NE 9 13 5 7 1015.1 1013.8 0.0
26/05:00am 17.6 14.2 1.6 34 7.2 NE 9 9 5 5 1014.9 1013.6 0.0
26/04:30am 17.8 15.4 -0.5 29 7.9 ENE 2 6 1 3 1014.9 1013.6 0.0
26/04:00am 19.0 16.1 1.5 31 8.0 ENE 6 7 3 4 1014.7 1013.4 0.0
26/03:30am 19.1 16.2 1.6 31 8.0 ENE 6 7 3 4 1014.7 1013.4 0.0
26/03:00am 20.9 18.0 2.7 30 8.6 ENE 7 9 4 5 1014.8 1013.5 0.0
26/02:30am 21.0 18.3 2.8 30 8.7 E 6 7 3 4 1014.8 1013.5 0.0
26/02:00am 20.0 18.1 0.5 27 8.8 CALM 0 6 0 3 1015.0 1013.7 0.0
26/01:30am 20.2 18.2 -0.4 25 9.1 CALM 0 0 0 0 1015.2 1013.9 0.0
26/01:00am 21.4 19.0 -0.6 23 9.8 E 2 6 1 3 1015.5 1014.2 0.0
26/12:30am 25.6 21.6 2.9 23 11.2 E 13 15 7 8 1015.5 1014.2 0.0
26/12:00am 26.0 22.4 2.7 22 11.5 E 11 13 6 7 1015.8 1014.5 0.0
 
Date/Time
EST
Temp
°C
App
Temp
°C
Dew
Point
Rel
Hum
%
Delta-T
°C
Wind Press
QNH
hPa
Press
MSL
hPa
Rain
since 9 am
mm
Dir
 
Spd
km/h
Gust
km/h
Spd
kts
Gust
kts
25/11:30pm 26.6 23.0 3.2 22 11.7 ENE 11 13 6 7 1016.0 1014.7 0.0
25/11:00pm 28.1 24.3 3.7 21 12.4 E 13 15 7 8 1016.1 1014.8 0.0
25/10:30pm 28.7 24.4 3.5 20 12.8 E 15 17 8 9 1016.3 1015.0 0.0
25/10:00pm 28.8 24.6 3.6 20 12.8 E 15 19 8 10 1016.3 1015.0 0.0
25/09:30pm 29.2 24.5 3.2 19 13.2 E 17 20 9 11 1016.1 1014.8 0.0
25/09:00pm 30.3 25.6 3.4 18 13.8 E 17 20 9 11 1015.8 1014.5 0.0
25/08:30pm 31.1 26.0 3.2 17 14.3 E 19 22 10 12 1015.6 1014.3 0.0
25/08:00pm 31.9 26.4 2.1 15 15.1 ESE 20 26 11 14 1015.3 1014.0 0.0
25/07:30pm 32.6 27.2 2.6 15 15.4 ESE 20 26 11 14 1014.9 1013.6 0.0
25/07:00pm 33.4 27.2 2.3 14 15.9 ESE 24 33 13 18 1014.5 1013.2 0.0
25/06:30pm 34.3 28.1 1.9 13 16.6 E 24 30 13 16 1014.0 1012.8 0.0
25/06:00pm 35.4 28.2 2.8 13 17.0 E 30 43 16 23 1013.7 1012.5 0.0
25/05:30pm 36.0 29.4 2.1 12 17.6 E 26 35 14 19 1013.4 1012.2 0.0
25/05:00pm 36.7 29.1 2.7 12 17.9 E 32 41 17 22 1013.1 1011.9 0.0
25/04:37pm 37.2 29.4 3.1 12 18.1 ESE 33 56 18 30 1012.8 1011.5 0.0
25/04:30pm 37.5 29.4 3.3 12 18.2 ESE 35 50 19 27 1012.9 1011.6 0.0
25/04:21pm 37.5 30.0 3.3 12 18.2 E 32 50 17 27 1012.9 1011.6 0.0
25/04:00pm 36.9 29.1 2.8 12 18.0 E 33 48 18 26 1012.9 1011.6 0.0
25/03:31pm 36.8 28.6 2.8 12 17.9 E 35 54 19 29 1013.2 1012.0 0.0
25/03:30pm 37.0 28.5 2.9 12 18.0 E 37 54 20 29 1013.3 1012.1 0.0
25/03:05pm 38.0 29.7 2.4 11 18.8 E 35 54 19 29 1013.4 1012.2 0.0
25/03:00pm 37.3 28.6 1.9 11 18.4 E 37 50 20 27 1013.5 1012.3 0.0
25/02:49pm 37.6 29.9 2.1 11 18.6 E 32 57 17 31 1013.5 1012.3 0.0
25/02:30pm 37.8 30.1 2.3 11 18.6 E 32 48 17 26 1013.9 1012.7 0.0
25/02:12pm 37.8 30.1 2.3 11 18.6 E 32 50 17 27 1014.0 1012.8 0.0
25/02:00pm 37.1 30.1 1.8 11 18.3 E 28 43 15 23 1014.1 1012.9 0.0
25/01:30pm 36.5 30.6 3.7 13 17.5 ENE 24 37 13 20 1014.7 1013.4 0.0
25/01:20pm 37.8 30.7 3.5 12 18.4 ESE 30 52 16 28 1014.9 1013.6 0.0
25/01:00pm 36.1 29.2 4.4 14 17.0 E 30 44 16 24 1015.3 1014.0 0.0
25/12:30pm 35.8 29.6 4.2 14 16.9 E 26 44 14 24 1016.0 1014.7 0.0
25/12:15pm 35.6 29.0 4.0 14 16.8 E 28 46 15 25 1016.2 1014.9 0.0
25/12:00pm 34.8 27.3 3.4 14 16.5 E 32 41 17 22 1016.5 1015.2 0.0
25/11:50am 36.2 27.6 4.5 14 17.1 ESE 39 48 21 26 1016.7 1015.4 0.0
25/11:47am 35.5 28.8 3.9 14 16.8 E 28 50 15 27 1016.8 1015.5 0.0
25/11:30am 34.7 28.5 2.3 13 16.7 ENE 24 37 13 20 1017.3 1016.1 0.0
25/11:00am 33.8 27.7 2.6 14 16.1 ENE 24 35 13 19 1017.8 1016.6 0.0
25/10:30am 33.3 26.9 1.2 13 16.1 E 24 33 13 18 1018.4 1017.2 0.0
25/10:00am 32.4 27.2 2.5 15 15.2 E 19 30 10 16 1018.8 1017.6 0.0
25/09:30am 30.4 25.2 2.6 17 14.0 ENE 19 26 10 14 1019.3 1018.1 0.0
25/09:00am 29.5 24.3 5.6 22 12.6 NE 22 32 12 17 1019.6 1018.3 0.0
25/08:30am 27.7 22.7 4.7 23 11.9 NE 20 32 11 17 1019.6 1018.3 0.0
25/08:00am 25.9 20.4 3.8 24 11.1 NE 22 33 12 18 1019.4 1018.2 0.0
25/07:53am 25.5 18.9 4.0 25 10.8 NE 28 33 15 18 1019.4 1018.2 0.0
25/07:30am 23.7 20.5 3.1 26 10.0 NNE 9 15 5 8 1019.2 1018.0 0.0
25/07:00am 21.9 19.0 2.6 28 9.2 ENE 7 11 4 6 1018.8 1017.6 0.0
25/06:30am 20.1 16.3 2.0 30 8.4 NE 11 13 6 7 1018.3 1017.1 0.0
25/06:00am 18.7 14.4 0.8 30 8.0 NE 13 15 7 8 1017.6 1016.4 0.0
25/05:30am 19.4 15.5 1.4 30 8.2 NE 11 13 6 7 1017.5 1016.3 0.0
25/05:00am 19.1 15.6 1.1 30 8.1 ENE 9 11 5 6 1017.2 1015.9 0.0
25/04:30am 19.3 15.7 0.8 29 8.3 ENE 9 13 5 7 1017.0 1015.7 0.0
25/04:00am 20.8 16.9 1.1 27 9.0 NE 11 13 6 7 1016.7 1015.4 0.0
25/03:30am 20.9 16.2 0.7 26 9.2 NNE 15 15 8 8 1016.5 1015.2 0.0
25/03:00am 21.4 16.7 1.1 26 9.4 NE 15 17 8 9 1016.3 1015.0 0.0
25/02:30am 21.9 17.7 1.5 26 9.5 NE 13 15 7 8 1016.3 1015.0 0.0
25/02:00am 21.6 17.5 2.3 28 9.1 NE 13 13 7 7 1016.3 1015.0 0.0
25/01:30am 22.8 18.9 3.4 28 9.5 NE 13 15 7 8 1016.6 1015.3 0.0
25/01:00am 22.9 19.3 2.9 27 9.7 ENE 11 15 6 8 1016.5 1015.2 0.0
25/12:30am 23.5 19.5 2.9 26 10.0 E 13 13 7 7 1016.5 1015.2 0.0
25/12:00am 23.0 18.3 0.8 23 10.3 E 15 17 8 9 1016.7 1015.4 0.0
 
Date/Time
EST
Temp
°C
App
Temp
°C
Dew
Point
Rel
Hum
%
Delta-T
°C
Wind Press
QNH
hPa
Press
MSL
hPa
Rain
since 9 am
mm
Dir
 
Spd
km/h
Gust
km/h
Spd
kts
Gust
kts
24/11:30pm 24.0 19.5 2.2 24 10.5 E 15 17 8 9 1016.8 1015.5 0.0
24/11:00pm 27.5 22.4 3.2 21 12.2 E 19 22 10 12 1016.9 1015.6 0.0
24/10:30pm 26.4 21.3 3.0 22 11.6 E 19 20 10 11 1017.0 1015.7 0.0
24/10:00pm 26.1 21.2 2.1 21 11.7 ESE 17 19 9 10 1016.9 1015.6 0.0
24/09:30pm 28.2 23.4 2.4 19 12.8 E 17 20 9 11 1016.6 1015.3 0.0
24/09:00pm 29.4 24.0 2.6 18 13.4 E 20 24 11 13 1016.2 1014.9 0.0
24/08:30pm 29.8 24.2 1.3 16 14.0 ESE 20 24 11 13 1015.8 1014.5 0.0
24/08:00pm 30.2 24.5 0.7 15 14.4 ESE 20 24 11 13 1015.4 1014.1 0.0
24/07:30pm 29.8 24.6 0.4 15 14.3 ESE 17 19 9 10 1015.0 1013.7 0.0
24/07:00pm 31.9 25.9 1.1 14 15.3 ESE 22 32 12 17 1014.6 1013.3 0.0
24/06:30pm 33.1 25.9 1.0 13 16.1 E 28 39 15 21 1014.1 1012.9 0.0
24/06:00pm 34.2 26.4 1.9 13 16.5 ESE 32 41 17 22 1013.7 1012.5 0.0
24/05:30pm 34.6 26.9 2.2 13 16.7 E 32 43 17 23 1013.4 1012.2 0.0
24/05:00pm 34.9 27.0 1.3 12 17.1 E 32 43 17 23 1013.3 1012.1 0.0
24/04:30pm 35.6 28.2 1.8 12 17.4 E 30 39 16 21 1013.2 1012.0 0.0
24/04:00pm 35.8 27.1 2.0 12 17.5 E 37 48 20 26 1013.2 1012.0 0.0
24/03:30pm 36.1 27.6 1.0 11 17.9 ESE 35 54 19 29 1013.3 1012.1 0.0
24/03:27pm 36.1 27.6 1.0 11 17.9 ESE 35 54 19 29 1013.4 1012.2 0.0
24/03:21pm 36.3 27.8 1.2 11 18.0 SE 35 48 19 26 1013.3 1012.1 0.0
24/03:00pm 36.5 27.7 1.3 11 18.1 E 37 48 20 26 1013.7 1012.5 0.0
24/02:30pm 37.0 30.0 1.7 11 18.3 E 28 48 15 26 1014.0 1012.8 0.0
24/02:07pm 37.0 29.2 2.9 12 18.0 ESE 33 52 18 28 1014.6 1013.3 0.0
24/02:00pm 36.9 28.0 2.8 12 18.0 ESE 39 50 21 27 1014.6 1013.3 0.0
24/01:34pm 36.3 29.6 3.5 13 17.4 E 28 46 15 25 1015.2 1013.9 0.0
24/01:30pm 36.2 30.0 4.5 14 17.1 E 26 44 14 24 1015.3 1014.0 0.0
24/01:00pm 35.8 28.4 4.2 14 16.9 ESE 32 46 17 25 1015.9 1014.6 0.0
24/12:51pm 35.6 29.0 4.0 14 16.8 E 28 46 15 25 1016.1 1014.8 0.0
24/12:30pm 34.3 27.5 3.0 14 16.3 E 28 39 15 21 1016.5 1015.2 0.0
24/12:00pm 33.8 28.8 1.6 13 16.3 NE 17 28 9 15 1017.0 1015.7 0.0
24/11:30am 33.1 27.2 2.0 14 15.8 E 22 39 12 21 1017.6 1016.4 0.0
24/11:00am 32.1 26.7 2.2 15 15.1 E 20 33 11 18 1018.1 1016.9 0.0
24/10:30am 31.7 25.8 1.9 15 15.0 ENE 22 32 12 17 1018.7 1017.5 0.0
24/10:00am 31.5 25.9 3.5 17 14.4 ENE 22 37 12 20 1019.0 1017.8 0.0
24/09:30am 30.0 25.3 5.3 21 13.0 NE 19 28 10 15 1019.2 1018.0 0.0
24/09:00am 28.8 24.0 5.6 23 12.2 NE 20 30 11 16 1019.3 1018.1 0.0
24/08:30am 26.8 21.3 5.7 26 11.0 NNE 24 32 13 17 1019.2 1018.0 0.0
24/08:00am 25.5 20.4 6.2 29 10.1 NNE 22 30 12 16 1019.1 1017.9 0.0
24/07:30am 23.8 18.8 6.6 33 9.0 NNE 22 28 12 15 1018.7 1017.5 0.0
24/07:00am 21.9 18.4 7.3 39 7.6 NE 15 19 8 10 1018.4 1017.2 0.0
24/06:30am 19.5 17.2 7.3 45 6.3 NE 9 11 5 6 1018.1 1016.9 0.0
24/06:00am 18.8 15.6 6.9 46 6.0 NE 13 15 7 8 1017.7 1016.5 0.0
24/05:30am 19.0 15.7 6.5 44 6.3 NE 13 17 7 9 1017.3 1016.1 0.0
24/05:00am 19.7 16.6 5.7 40 7.0 NE 11 15 6 8 1017.2 1015.9 0.0
24/04:30am 20.1 16.7 5.7 39 7.2 NE 13 17 7 9 1016.9 1015.6 0.0
24/04:00am 20.8 16.7 4.4 34 8.0 NE 15 19 8 10 1016.7 1015.4 0.0
24/03:30am 21.4 17.2 4.0 32 8.5 NNE 15 19 8 10 1016.4 1015.1 0.0
24/03:00am 20.3 15.8 2.2 30 8.5 NNE 15 20 8 11 1016.2 1014.9 0.0
24/02:30am 19.9 15.7 1.8 30 8.4 NE 13 17 7 9 1016.0 1014.7 0.0
24/02:00am 19.6 16.2 1.6 30 8.3 ENE 9 11 5 6 1016.1 1014.8 0.0
24/01:30am 20.7 16.5 1.6 28 8.9 E 13 13 7 7 1016.3 1015.0 0.0
24/01:00am 21.2 16.9 1.0 26 9.3 E 13 15 7 8 1016.7 1015.4 0.0
24/12:30am 21.4 16.7 1.1 26 9.4 E 15 17 8 9 1016.8 1015.5 0.0
24/12:00am 21.6 17.0 1.3 26 9.4 E 15 17 8 9 1016.8 1015.5 0.0
 
Date/Time
EST
Temp
°C
App
Temp
°C
Dew
Point
Rel
Hum
%
Delta-T
°C
Wind Press
QNH
hPa
Press
MSL
hPa
Rain
since 9 am
mm
Dir
 
Spd
km/h
Gust
km/h
Spd
kts
Gust
kts
23/11:30pm 22.4 17.8 1.4 25 9.8 ESE 15 17 8 9 1017.0 1015.7 0.0
23/11:00pm 24.0 19.5 2.2 24 10.5 E 15 17 8 9 1017.1 1015.8 0.0
23/10:30pm 23.7 19.1 1.4 23 10.5 ESE 15 17 8 9 1017.0 1015.7 0.0
23/10:00pm 24.6 19.7 2.1 23 10.8 ESE 17 17 9 9 1016.8 1015.5 0.0
23/09:30pm 25.3 20.8 2.1 22 11.2 E 15 17 8 9 1016.6 1015.3 0.0
23/09:00pm 26.4 21.7 3.0 22 11.6 ESE 17 17 9 9 1016.3 1015.0 0.0
23/08:30pm 27.9 23.2 2.9 20 12.5 E 17 19 9 10 1015.8 1014.5 0.0
23/08:00pm 29.3 24.4 4.0 20 13.0 ESE 19 22 10 12 1015.5 1014.2 0.0
23/07:30pm 30.1 25.0 4.0 19 13.5 ESE 20 26 11 14 1015.2 1013.9 0.0
23/07:00pm 31.0 24.3 3.9 18 14.0 ESE 28 39 15 21 1014.7 1013.4 0.0
23/06:30pm 31.9 24.1 3.0 16 14.8 ESE 33 43 18 23 1014.2 1013.0 0.0
23/06:00pm 32.8 26.3 2.8 15 15.4 ESE 26 39 14 21 1013.9 1012.7 0.0
23/05:30pm 33.4 25.7 3.3 15 15.7 ESE 33 44 18 24 1013.5 1012.3 0.0
23/05:00pm 34.5 26.7 3.1 14 16.4 ESE 33 48 18 26 1013.2 1012.0 0.0
23/04:52pm 34.0 24.3 2.8 14 16.2 SE 43 48 23 26 1013.1 1011.9 0.0
23/04:30pm 34.0 25.6 1.7 13 16.4 E 35 48 19 26 1013.1 1011.9 0.0
23/04:00pm 35.2 27.7 3.7 14 16.7 ESE 32 52 17 28 1013.1 1011.9 0.0
23/03:34pm 34.4 26.8 3.1 14 16.3 ESE 32 52 17 28 1013.2 1012.0 0.0
23/03:30pm 35.0 26.8 2.5 13 16.9 ESE 35 52 19 28 1013.3 1012.1 0.0
23/03:12pm 35.7 27.9 1.9 12 17.4 E 32 50 17 27 1013.3 1012.1 0.0
23/03:00pm 36.1 28.4 3.3 13 17.3 E 33 48 18 26 1013.5 1012.3 0.0
23/02:48pm 35.7 27.6 3.0 13 17.2 E 35 54 19 29 1013.6 1012.4 0.0
23/02:46pm 35.2 26.2 2.6 13 17.0 E 39 54 21 29 1013.6 1012.4 0.0
23/02:30pm 35.3 27.1 2.7 13 17.0 SE 35 43 19 23 1013.8 1012.6 0.0
23/02:05pm 34.5 26.8 2.1 13 16.6 E 32 50 17 27 1014.2 1013.0 0.0
23/02:00pm 34.7 27.0 3.3 14 16.5 E 33 46 18 25 1014.3 1013.1 0.0
23/01:50pm 34.4 26.8 4.0 15 16.1 E 33 52 18 28 1014.6 1013.3 0.0
23/01:40pm 35.5 26.9 4.9 15 16.5 ESE 39 50 21 27 1014.8 1013.5 0.0
23/01:35pm 34.4 29.1 5.0 16 15.8 E 22 32 12 17 1014.8 1013.5 0.0
23/01:30pm 35.2 25.8 4.7 15 16.4 SE 43 54 23 29 1014.8 1013.5 0.0
23/01:29pm 34.8 24.8 4.4 15 16.2 SE 46 54 25 29 1014.8 1013.5 0.0
23/01:12pm 34.0 26.7 5.5 17 15.4 E 33 54 18 29 1015.2 1013.9 0.0
23/01:00pm 34.2 27.0 5.7 17 15.5 E 33 50 18 27 1015.4 1014.1 0.0
23/12:30pm 34.1 27.6 6.4 18 15.2 E 30 50 16 27 1016.0 1014.7 0.0
23/12:12pm 33.6 27.2 6.8 19 14.8 E 30 48 16 26 1016.4 1015.1 0.0
23/12:00pm 33.0 26.5 6.3 19 14.5 E 30 43 16 23 1016.7 1015.4 0.0
23/11:30am 32.1 26.2 7.7 22 13.5 E 28 43 15 23 1017.3 1016.1 0.0
23/11:00am 31.9 26.2 8.2 23 13.2 ESE 28 37 15 20 1017.8 1016.6 0.0
23/10:30am 31.2 27.1 8.8 25 12.6 NE 20 33 11 18 1018.5 1017.3 0.0
23/10:00am 30.2 26.1 10.2 29 11.4 E 22 33 12 18 1018.8 1017.6 0.0
23/09:30am 28.1 24.5 9.9 32 10.3 NE 19 30 10 16 1019.1 1017.9 0.0
23/09:00am 27.8 24.4 10.5 34 9.8 NE 19 28 10 15 1019.2 1018.0 0.0
23/08:30am 26.2 22.6 10.4 37 8.9 NE 20 28 11 15 1019.2 1018.0 0.0
23/08:00am 25.2 22.3 11.0 41 8.0 ENE 17 22 9 12 1018.9 1017.7 0.0
23/07:30am 23.6 20.7 11.0 45 7.1 NE 17 26 9 14 1018.7 1017.5 0.0

Other Formats:

Comma delimited format used in spreadsheet applications
http://www.bom.gov.au/fwo/IDQ60801/IDQ60801.94341.axf

JavaScript Object Notation format (JSON) in row-major order
http://www.bom.gov.au/fwo/IDQ60801/IDQ60801.94341.json